Aérodrome :
LOGIN :

S'inscrire | Disclaimer

   EN    FR    IT 

 










Légende :    VFR   VFR Marginal   IFR   IFR Intensif   IFR Très Intensif
Visi : 
Plafond : 
>= 8 km
>= 3000ft
5 à 8 km
1000 à 3000 ft
1500m à 5 km
500 à 1000 ft
800 à 1500m
200 à 500 ft
< 800m
< 200 ft
Symboles :   Orages  Brouillard  Fortes neiges  Fortes précipitations  Vent > 20 kt
SIGMETs :   Divers  Orages  Givrage  Turbulence  Onde Orograph.  Cendres Volcan.







- Altitude de l'aérodrome : 1989 ft
- Code IATA : KLV


LKKV - Karlovy Vary

DERNIER METAR :
  • 251000Z 24014G24KT 200V300 9999 SCT038 18/07 Q1010

METARs EXPIRÉS :
  • 250930Z 24012G22KT 190V280 9999 SCT035 17/08 Q1010
  • 250900Z 24012G23KT 200V280 9999 BKN033 16/08 Q1010
  • 250830Z 24012G23KT 200V280 9999 SCT031 15/08 Q1011
  • 250800Z 25011KT 220V290 9999 BKN030 15/09 Q1011
  • 250730Z 25009KT 200V280 9999 SCT030 15/08 Q1011

TAF AMD TAF LKKV
Valide du 25 à 09h jusqu'au 26 à 12h UTC


250902Z 2509/2612 24012KT 9999 SCT030
TEMPO 2509/2518 27016G28KT
PROB40
TEMPO 2513/2519 BKN023TCU
TEMPO 2519/2603 -RA BKN020
BECMG 2606/2608 BKN023
Pas de NOTAMs connus pour ce terrain.



MET'MAP, la Météo Aéronautique d'un coup d'oeil ! - Copyright ORBIFLY Décembre 2007 - Disclaimer

ORBIFLY MET'MAP TEAM :

Programmation & Développement : Alexandra Zaïnal
Conception & Développement : Baudouin d'Aumeries
Co-Programmation & Développement : Marc-Olivier Méhu
Soutien technique & logistique : Manuel Goepfert

Contact : metmap@orbifly.com




SOURCES & CREDITS :

   NOAA